sensor_id;sensor_type;location;lat;lon;timestamp;temperature;humidity
7077;DHT22;3579;48.956;9.154;2023-10-31T00:01:09;19.30;65.10
7077;DHT22;3579;48.956;9.154;2023-10-31T00:03:37;19.30;65.90
7077;DHT22;3579;48.956;9.154;2023-10-31T00:06:06;19.40;65.60
7077;DHT22;3579;48.956;9.154;2023-10-31T00:08:32;19.40;65.50
7077;DHT22;3579;48.956;9.154;2023-10-31T00:10:58;19.30;65.40
7077;DHT22;3579;48.956;9.154;2023-10-31T00:13:24;19.30;65.50
7077;DHT22;3579;48.956;9.154;2023-10-31T00:15:50;19.30;65.50
7077;DHT22;3579;48.956;9.154;2023-10-31T00:18:16;19.30;66.20
7077;DHT22;3579;48.956;9.154;2023-10-31T00:20:42;19.30;65.60
7077;DHT22;3579;48.956;9.154;2023-10-31T00:23:08;19.30;65.60
7077;DHT22;3579;48.956;9.154;2023-10-31T00:25:34;19.30;65.60
7077;DHT22;3579;48.956;9.154;2023-10-31T00:28:00;19.30;65.60
7077;DHT22;3579;48.956;9.154;2023-10-31T00:30:26;19.30;65.60
7077;DHT22;3579;48.956;9.154;2023-10-31T00:32:52;19.30;65.70
7077;DHT22;3579;48.956;9.154;2023-10-31T00:35:18;19.20;65.60
7077;DHT22;3579;48.956;9.154;2023-10-31T00:37:44;19.20;65.60
7077;DHT22;3579;48.956;9.154;2023-10-31T00:40:11;19.20;65.60
7077;DHT22;3579;48.956;9.154;2023-10-31T00:42:38;19.20;65.60
7077;DHT22;3579;48.956;9.154;2023-10-31T00:45:07;19.20;65.70
7077;DHT22;3579;48.956;9.154;2023-10-31T00:47:33;19.20;65.70
7077;DHT22;3579;48.956;9.154;2023-10-31T00:49:59;19.20;65.70
7077;DHT22;3579;48.956;9.154;2023-10-31T00:52:25;19.20;65.70
7077;DHT22;3579;48.956;9.154;2023-10-31T00:54:51;19.20;65.80
7077;DHT22;3579;48.956;9.154;2023-10-31T00:57:17;19.20;65.80
7077;DHT22;3579;48.956;9.154;2023-10-31T00:59:43;19.10;65.70
7077;DHT22;3579;48.956;9.154;2023-10-31T01:02:09;19.20;65.80
7077;DHT22;3579;48.956;9.154;2023-10-31T01:04:38;19.20;65.90
7077;DHT22;3579;48.956;9.154;2023-10-31T01:07:04;19.10;65.80
7077;DHT22;3579;48.956;9.154;2023-10-31T01:09:30;19.10;65.70
7077;DHT22;3579;48.956;9.154;2023-10-31T01:11:56;17.70;64.30
7077;DHT22;3579;48.956;9.154;2023-10-31T01:14:22;19.10;66.50
7077;DHT22;3579;48.956;9.154;2023-10-31T01:16:48;19.10;65.80
7077;DHT22;3579;48.956;9.154;2023-10-31T01:19:14;19.10;65.90
7077;DHT22;3579;48.956;9.154;2023-10-31T01:21:40;19.10;65.90
7077;DHT22;3579;48.956;9.154;2023-10-31T01:24:07;19.10;65.90
7077;DHT22;3579;48.956;9.154;2023-10-31T01:26:33;19.10;65.90
7077;DHT22;3579;48.956;9.154;2023-10-31T01:28:59;19.00;65.80
7077;DHT22;3579;48.956;9.154;2023-10-31T01:31:25;19.00;65.90
7077;DHT22;3579;48.956;9.154;2023-10-31T01:33:51;19.00;66.60
7077;DHT22;3579;48.956;9.154;2023-10-31T01:36:17;19.00;65.90
7077;DHT22;3579;48.956;9.154;2023-10-31T01:38:44;19.00;65.90
7077;DHT22;3579;48.956;9.154;2023-10-31T01:41:12;19.00;65.90
7077;DHT22;3579;48.956;9.154;2023-10-31T01:43:38;19.00;66.00
7077;DHT22;3579;48.956;9.154;2023-10-31T01:46:05;19.00;66.00
7077;DHT22;3579;48.956;9.154;2023-10-31T01:48:32;19.00;66.00
7077;DHT22;3579;48.956;9.154;2023-10-31T01:50:59;18.90;66.00
7077;DHT22;3579;48.956;9.154;2023-10-31T01:53:28;19.00;66.10
7077;DHT22;3579;48.956;9.154;2023-10-31T01:55:55;18.90;66.00
7077;DHT22;3579;48.956;9.154;2023-10-31T01:58:27;18.90;66.00
7077;DHT22;3579;48.956;9.154;2023-10-31T02:00:55;18.90;66.10
7077;DHT22;3579;48.956;9.154;2023-10-31T02:03:21;18.90;66.20
7077;DHT22;3579;48.956;9.154;2023-10-31T02:05:47;18.90;66.10
7077;DHT22;3579;48.956;9.154;2023-10-31T02:08:14;18.90;66.20
7077;DHT22;3579;48.956;9.154;2023-10-31T02:10:40;18.90;66.20
7077;DHT22;3579;48.956;9.154;2023-10-31T02:13:15;18.90;66.20
7077;DHT22;3579;48.956;9.154;2023-10-31T02:15:42;18.80;66.10
7077;DHT22;3579;48.956;9.154;2023-10-31T02:18:08;18.80;66.10
7077;DHT22;3579;48.956;9.154;2023-10-31T02:20:35;18.90;66.30
7077;DHT22;3579;48.956;9.154;2023-10-31T02:23:02;18.80;66.20
7077;DHT22;3579;48.956;9.154;2023-10-31T02:25:28;18.80;66.20
7077;DHT22;3579;48.956;9.154;2023-10-31T02:27:55;18.80;66.30
7077;DHT22;3579;48.956;9.154;2023-10-31T02:30:21;18.80;66.30
7077;DHT22;3579;48.956;9.154;2023-10-31T02:32:47;18.80;66.20
7077;DHT22;3579;48.956;9.154;2023-10-31T02:35:15;18.80;66.30
7077;DHT22;3579;48.956;9.154;2023-10-31T02:37:41;18.80;66.30
7077;DHT22;3579;48.956;9.154;2023-10-31T02:40:07;18.80;66.30
7077;DHT22;3579;48.956;9.154;2023-10-31T02:42:34;18.80;66.30
7077;DHT22;3579;48.956;9.154;2023-10-31T02:45:00;18.70;66.30
7077;DHT22;3579;48.956;9.154;2023-10-31T02:47:26;18.70;66.30
7077;DHT22;3579;48.956;9.154;2023-10-31T02:49:52;18.70;66.30
7077;DHT22;3579;48.956;9.154;2023-10-31T02:52:18;18.70;66.30
7077;DHT22;3579;48.956;9.154;2023-10-31T02:54:44;18.70;66.40
7077;DHT22;3579;48.956;9.154;2023-10-31T02:57:10;18.70;66.30
7077;DHT22;3579;48.956;9.154;2023-10-31T02:59:36;18.70;66.40
7077;DHT22;3579;48.956;9.154;2023-10-31T03:02:02;18.70;66.40
7077;DHT22;3579;48.956;9.154;2023-10-31T03:04:28;18.70;66.40
7077;DHT22;3579;48.956;9.154;2023-10-31T03:06:54;18.60;66.40
7077;DHT22;3579;48.956;9.154;2023-10-31T03:09:20;18.60;66.40
7077;DHT22;3579;48.956;9.154;2023-10-31T03:11:46;18.60;66.40
7077;DHT22;3579;48.956;9.154;2023-10-31T03:14:12;18.60;66.40
7077;DHT22;3579;48.956;9.154;2023-10-31T03:16:38;18.60;66.50
7077;DHT22;3579;48.956;9.154;2023-10-31T03:19:05;18.60;66.50
7077;DHT22;3579;48.956;9.154;2023-10-31T03:21:31;18.60;66.50
7077;DHT22;3579;48.956;9.154;2023-10-31T03:23:57;18.60;66.50
7077;DHT22;3579;48.956;9.154;2023-10-31T03:26:28;18.60;66.60
7077;DHT22;3579;48.956;9.154;2023-10-31T03:28:54;18.60;66.60
7077;DHT22;3579;48.956;9.154;2023-10-31T03:31:23;18.50;66.50
7077;DHT22;3579;48.956;9.154;2023-10-31T03:33:50;18.60;66.60
7077;DHT22;3579;48.956;9.154;2023-10-31T03:36:16;18.60;66.60
7077;DHT22;3579;48.956;9.154;2023-10-31T03:38:42;18.50;66.50
7077;DHT22;3579;48.956;9.154;2023-10-31T03:41:08;18.50;66.50
7077;DHT22;3579;48.956;9.154;2023-10-31T03:43:34;18.50;66.50
7077;DHT22;3579;48.956;9.154;2023-10-31T03:46:00;18.50;66.60
7077;DHT22;3579;48.956;9.154;2023-10-31T03:48:26;18.50;66.60
7077;DHT22;3579;48.956;9.154;2023-10-31T03:50:53;18.50;66.60
7077;DHT22;3579;48.956;9.154;2023-10-31T03:53:19;18.50;66.60
7077;DHT22;3579;48.956;9.154;2023-10-31T03:55:45;18.50;66.60
7077;DHT22;3579;48.956;9.154;2023-10-31T03:58:11;18.50;66.70
7077;DHT22;3579;48.956;9.154;2023-10-31T04:00:38;18.50;66.70
7077;DHT22;3579;48.956;9.154;2023-10-31T04:03:04;18.40;66.60
7077;DHT22;3579;48.956;9.154;2023-10-31T04:05:30;18.40;66.70
7077;DHT22;3579;48.956;9.154;2023-10-31T04:07:56;18.40;66.70
7077;DHT22;3579;48.956;9.154;2023-10-31T04:10:22;18.40;66.70
7077;DHT22;3579;48.956;9.154;2023-10-31T04:12:48;18.40;66.70
7077;DHT22;3579;48.956;9.154;2023-10-31T04:15:15;18.40;66.70
7077;DHT22;3579;48.956;9.154;2023-10-31T04:17:41;18.40;66.70
7077;DHT22;3579;48.956;9.154;2023-10-31T04:20:07;18.40;66.70
7077;DHT22;3579;48.956;9.154;2023-10-31T04:22:33;18.40;66.80
7077;DHT22;3579;48.956;9.154;2023-10-31T04:24:59;18.40;66.80
7077;DHT22;3579;48.956;9.154;2023-10-31T04:27:25;18.40;66.80
7077;DHT22;3579;48.956;9.154;2023-10-31T04:29:51;18.40;66.80
7077;DHT22;3579;48.956;9.154;2023-10-31T04:32:17;18.40;66.80
7077;DHT22;3579;48.956;9.154;2023-10-31T04:34:43;18.40;66.80
7077;DHT22;3579;48.956;9.154;2023-10-31T04:37:09;18.40;66.90
7077;DHT22;3579;48.956;9.154;2023-10-31T04:39:35;18.30;66.80
7077;DHT22;3579;48.956;9.154;2023-10-31T04:42:01;18.40;66.90
7077;DHT22;3579;48.956;9.154;2023-10-31T04:44:28;18.40;66.90
7077;DHT22;3579;48.956;9.154;2023-10-31T04:46:54;18.30;66.80
7077;DHT22;3579;48.956;9.154;2023-10-31T04:49:20;18.30;66.80
7077;DHT22;3579;48.956;9.154;2023-10-31T04:51:46;18.30;66.80
7077;DHT22;3579;48.956;9.154;2023-10-31T04:54:12;18.30;66.80
7077;DHT22;3579;48.956;9.154;2023-10-31T04:56:39;18.30;66.80
7077;DHT22;3579;48.956;9.154;2023-10-31T04:59:05;18.30;66.90
7077;DHT22;3579;48.956;9.154;2023-10-31T05:01:31;18.30;66.90
7077;DHT22;3579;48.956;9.154;2023-10-31T05:03:57;18.30;66.90
7077;DHT22;3579;48.956;9.154;2023-10-31T05:06:23;18.30;66.90
7077;DHT22;3579;48.956;9.154;2023-10-31T05:08:49;18.30;66.90
7077;DHT22;3579;48.956;9.154;2023-10-31T05:11:18;18.30;66.90
7077;DHT22;3579;48.956;9.154;2023-10-31T05:13:45;18.30;66.90
7077;DHT22;3579;48.956;9.154;2023-10-31T05:16:11;18.30;67.00
7077;DHT22;3579;48.956;9.154;2023-10-31T05:18:38;18.20;66.90
7077;DHT22;3579;48.956;9.154;2023-10-31T05:21:04;18.20;66.90
7077;DHT22;3579;48.956;9.154;2023-10-31T05:23:31;18.20;66.90
7077;DHT22;3579;48.956;9.154;2023-10-31T05:25:57;18.20;67.00
7077;DHT22;3579;48.956;9.154;2023-10-31T05:28:23;18.20;67.00
7077;DHT22;3579;48.956;9.154;2023-10-31T05:30:49;18.20;67.00
7077;DHT22;3579;48.956;9.154;2023-10-31T05:33:16;18.20;67.00
7077;DHT22;3579;48.956;9.154;2023-10-31T05:35:42;18.20;67.00
7077;DHT22;3579;48.956;9.154;2023-10-31T05:38:08;18.20;67.00
7077;DHT22;3579;48.956;9.154;2023-10-31T05:40:34;18.10;67.00
7077;DHT22;3579;48.956;9.154;2023-10-31T05:43:03;18.10;67.00
7077;DHT22;3579;48.956;9.154;2023-10-31T05:45:30;18.10;67.00
7077;DHT22;3579;48.956;9.154;2023-10-31T05:47:56;18.10;67.00
7077;DHT22;3579;48.956;9.154;2023-10-31T05:50:22;18.20;67.10
7077;DHT22;3579;48.956;9.154;2023-10-31T05:52:48;18.10;67.00
7077;DHT22;3579;48.956;9.154;2023-10-31T05:55:14;18.10;67.00
7077;DHT22;3579;48.956;9.154;2023-10-31T05:57:40;18.10;67.10
7077;DHT22;3579;48.956;9.154;2023-10-31T06:00:07;18.10;67.00
7077;DHT22;3579;48.956;9.154;2023-10-31T06:02:34;18.10;67.10
7077;DHT22;3579;48.956;9.154;2023-10-31T06:05:00;18.10;67.10
7077;DHT22;3579;48.956;9.154;2023-10-31T06:07:26;18.10;67.10
7077;DHT22;3579;48.956;9.154;2023-10-31T06:09:52;18.10;67.10
7077;DHT22;3579;48.956;9.154;2023-10-31T06:12:18;18.10;67.80
7077;DHT22;3579;48.956;9.154;2023-10-31T06:14:44;18.10;67.20
7077;DHT22;3579;48.956;9.154;2023-10-31T06:17:10;18.10;67.20
7077;DHT22;3579;48.956;9.154;2023-10-31T06:19:37;18.10;67.20
7077;DHT22;3579;48.956;9.154;2023-10-31T06:22:03;18.10;67.20
7077;DHT22;3579;48.956;9.154;2023-10-31T06:24:30;18.10;67.20
7077;DHT22;3579;48.956;9.154;2023-10-31T06:26:56;18.10;67.20
7077;DHT22;3579;48.956;9.154;2023-10-31T06:29:22;18.10;67.20
7077;DHT22;3579;48.956;9.154;2023-10-31T06:31:48;18.00;67.00
7077;DHT22;3579;48.956;9.154;2023-10-31T06:34:14;18.00;67.10
7077;DHT22;3579;48.956;9.154;2023-10-31T06:36:40;18.00;67.00
7077;DHT22;3579;48.956;9.154;2023-10-31T06:39:08;18.00;67.10
7077;DHT22;3579;48.956;9.154;2023-10-31T06:41:35;18.00;67.10
7077;DHT22;3579;48.956;9.154;2023-10-31T06:44:01;18.00;67.10
7077;DHT22;3579;48.956;9.154;2023-10-31T06:46:27;18.00;67.10
7077;DHT22;3579;48.956;9.154;2023-10-31T06:48:53;18.00;67.10
7077;DHT22;3579;48.956;9.154;2023-10-31T06:51:19;18.00;67.10
7077;DHT22;3579;48.956;9.154;2023-10-31T06:53:45;18.00;67.10
7077;DHT22;3579;48.956;9.154;2023-10-31T06:56:11;18.00;67.20
7077;DHT22;3579;48.956;9.154;2023-10-31T06:58:37;18.00;67.10
7077;DHT22;3579;48.956;9.154;2023-10-31T07:01:04;18.00;67.20
7077;DHT22;3579;48.956;9.154;2023-10-31T07:03:30;18.00;67.20
7077;DHT22;3579;48.956;9.154;2023-10-31T07:05:56;18.00;67.20
7077;DHT22;3579;48.956;9.154;2023-10-31T07:08:25;18.00;67.20
7077;DHT22;3579;48.956;9.154;2023-10-31T07:10:51;18.00;67.20
7077;DHT22;3579;48.956;9.154;2023-10-31T07:13:17;18.00;67.20
7077;DHT22;3579;48.956;9.154;2023-10-31T07:15:46;18.00;67.20
7077;DHT22;3579;48.956;9.154;2023-10-31T07:18:13;18.00;67.30
7077;DHT22;3579;48.956;9.154;2023-10-31T07:20:39;18.00;67.30
7077;DHT22;3579;48.956;9.154;2023-10-31T07:23:05;18.00;67.20
7077;DHT22;3579;48.956;9.154;2023-10-31T07:25:31;18.00;67.30
7077;DHT22;3579;48.956;9.154;2023-10-31T07:27:58;18.00;67.30
7077;DHT22;3579;48.956;9.154;2023-10-31T07:30:24;18.00;67.30
7077;DHT22;3579;48.956;9.154;2023-10-31T07:32:51;18.00;67.30
7077;DHT22;3579;48.956;9.154;2023-10-31T07:35:17;18.00;67.40
7077;DHT22;3579;48.956;9.154;2023-10-31T07:37:45;18.00;67.20
7077;DHT22;3579;48.956;9.154;2023-10-31T07:40:12;18.00;67.30
7077;DHT22;3579;48.956;9.154;2023-10-31T07:42:38;18.00;67.30
7077;DHT22;3579;48.956;9.154;2023-10-31T07:45:05;18.00;67.30
7077;DHT22;3579;48.956;9.154;2023-10-31T07:47:31;18.00;67.20
7077;DHT22;3579;48.956;9.154;2023-10-31T07:49:57;18.00;67.20
7077;DHT22;3579;48.956;9.154;2023-10-31T07:52:23;18.00;67.30
7077;DHT22;3579;48.956;9.154;2023-10-31T07:54:49;18.00;67.30
7077;DHT22;3579;48.956;9.154;2023-10-31T07:57:16;18.00;67.30
7077;DHT22;3579;48.956;9.154;2023-10-31T07:59:43;18.00;67.30
7077;DHT22;3579;48.956;9.154;2023-10-31T08:02:10;18.00;67.30
7077;DHT22;3579;48.956;9.154;2023-10-31T08:04:36;18.00;67.20
7077;DHT22;3579;48.956;9.154;2023-10-31T08:07:03;18.00;67.30
7077;DHT22;3579;48.956;9.154;2023-10-31T08:09:29;18.00;67.20
7077;DHT22;3579;48.956;9.154;2023-10-31T08:11:55;18.00;67.20
7077;DHT22;3579;48.956;9.154;2023-10-31T08:14:21;18.00;67.20
7077;DHT22;3579;48.956;9.154;2023-10-31T08:16:48;18.10;67.30
7077;DHT22;3579;48.956;9.154;2023-10-31T08:19:14;18.10;67.30
7077;DHT22;3579;48.956;9.154;2023-10-31T08:21:40;18.10;67.30
7077;DHT22;3579;48.956;9.154;2023-10-31T08:24:07;18.10;67.30
7077;DHT22;3579;48.956;9.154;2023-10-31T08:26:33;18.10;67.20
7077;DHT22;3579;48.956;9.154;2023-10-31T08:29:00;18.10;67.20
7077;DHT22;3579;48.956;9.154;2023-10-31T08:31:28;18.10;67.20
7077;DHT22;3579;48.956;9.154;2023-10-31T08:33:54;18.10;67.20
7077;DHT22;3579;48.956;9.154;2023-10-31T08:36:20;18.10;67.20
7077;DHT22;3579;48.956;9.154;2023-10-31T08:38:46;18.10;67.20
7077;DHT22;3579;48.956;9.154;2023-10-31T08:41:12;18.20;67.20
7077;DHT22;3579;48.956;9.154;2023-10-31T08:43:44;18.20;67.20
7077;DHT22;3579;48.956;9.154;2023-10-31T08:46:10;18.20;67.20
7077;DHT22;3579;48.956;9.154;2023-10-31T08:48:37;18.20;67.20
7077;DHT22;3579;48.956;9.154;2023-10-31T08:51:04;18.20;67.20
7077;DHT22;3579;48.956;9.154;2023-10-31T08:53:30;18.20;67.20
7077;DHT22;3579;48.956;9.154;2023-10-31T08:55:56;18.20;67.20
7077;DHT22;3579;48.956;9.154;2023-10-31T08:58:22;18.20;67.20
7077;DHT22;3579;48.956;9.154;2023-10-31T09:00:50;18.20;67.10
7077;DHT22;3579;48.956;9.154;2023-10-31T09:03:16;18.30;67.20
7077;DHT22;3579;48.956;9.154;2023-10-31T09:05:42;18.30;67.20
7077;DHT22;3579;48.956;9.154;2023-10-31T09:08:08;18.20;67.10
7077;DHT22;3579;48.956;9.154;2023-10-31T09:10:36;18.30;67.20
7077;DHT22;3579;48.956;9.154;2023-10-31T09:13:04;18.30;67.10
7077;DHT22;3579;48.956;9.154;2023-10-31T09:15:30;18.40;67.20
7077;DHT22;3579;48.956;9.154;2023-10-31T09:17:56;18.40;67.10
7077;DHT22;3579;48.956;9.154;2023-10-31T09:20:23;18.40;67.10
7077;DHT22;3579;48.956;9.154;2023-10-31T09:22:49;18.40;67.10
7077;DHT22;3579;48.956;9.154;2023-10-31T09:25:15;18.40;67.10
7077;DHT22;3579;48.956;9.154;2023-10-31T09:27:41;18.40;67.10
7077;DHT22;3579;48.956;9.154;2023-10-31T09:30:08;18.40;67.10
7077;DHT22;3579;48.956;9.154;2023-10-31T09:32:34;18.40;67.10
7077;DHT22;3579;48.956;9.154;2023-10-31T09:35:00;18.40;67.10
7077;DHT22;3579;48.956;9.154;2023-10-31T09:37:26;18.40;67.10
7077;DHT22;3579;48.956;9.154;2023-10-31T09:39:52;18.40;67.10
7077;DHT22;3579;48.956;9.154;2023-10-31T09:42:18;18.40;67.00
7077;DHT22;3579;48.956;9.154;2023-10-31T09:44:44;18.40;67.00
7077;DHT22;3579;48.956;9.154;2023-10-31T09:47:10;18.50;67.10
7077;DHT22;3579;48.956;9.154;2023-10-31T09:49:37;18.50;67.10
7077;DHT22;3579;48.956;9.154;2023-10-31T09:52:04;18.50;66.90
7077;DHT22;3579;48.956;9.154;2023-10-31T09:54:33;18.60;67.00
7077;DHT22;3579;48.956;9.154;2023-10-31T09:56:59;18.60;67.00
7077;DHT22;3579;48.956;9.154;2023-10-31T09:59:25;18.60;66.90
7077;DHT22;3579;48.956;9.154;2023-10-31T10:01:51;18.60;66.80
7077;DHT22;3579;48.956;9.154;2023-10-31T10:04:18;18.60;66.80
7077;DHT22;3579;48.956;9.154;2023-10-31T10:07:17;18.70;66.90
7077;DHT22;3579;48.956;9.154;2023-10-31T10:09:44;18.60;66.80
7077;DHT22;3579;48.956;9.154;2023-10-31T10:12:16;18.70;66.90
7077;DHT22;3579;48.956;9.154;2023-10-31T10:14:44;18.70;66.80
7077;DHT22;3579;48.956;9.154;2023-10-31T10:17:22;18.70;66.80
7077;DHT22;3579;48.956;9.154;2023-10-31T10:19:53;18.70;66.80
7077;DHT22;3579;48.956;9.154;2023-10-31T10:22:30;18.80;66.80
7077;DHT22;3579;48.956;9.154;2023-10-31T10:24:56;18.80;67.50
7077;DHT22;3579;48.956;9.154;2023-10-31T10:27:24;18.80;66.80
7077;DHT22;3579;48.956;9.154;2023-10-31T10:29:53;18.80;66.70
7077;DHT22;3579;48.956;9.154;2023-10-31T10:32:19;18.90;66.80
7077;DHT22;3579;48.956;9.154;2023-10-31T10:34:46;18.90;66.70
7077;DHT22;3579;48.956;9.154;2023-10-31T10:37:13;18.50;66.30
7077;DHT22;3579;48.956;9.154;2023-10-31T10:39:40;18.90;66.70
7077;DHT22;3579;48.956;9.154;2023-10-31T10:42:10;18.90;66.80
7077;DHT22;3579;48.956;9.154;2023-10-31T10:44:39;18.90;66.90
7077;DHT22;3579;48.956;9.154;2023-10-31T10:47:08;18.90;67.80
7077;DHT22;3579;48.956;9.154;2023-10-31T10:49:36;18.90;67.00
7077;DHT22;3579;48.956;9.154;2023-10-31T10:54:51;18.90;67.00
7077;DHT22;3579;48.956;9.154;2023-10-31T10:57:33;18.90;67.60
7077;DHT22;3579;48.956;9.154;2023-10-31T11:00:05;18.90;66.90
7077;DHT22;3579;48.956;9.154;2023-10-31T11:02:36;18.90;66.90
7077;DHT22;3579;48.956;9.154;2023-10-31T11:05:05;19.00;67.10
7077;DHT22;3579;48.956;9.154;2023-10-31T11:07:34;19.00;66.90
7077;DHT22;3579;48.956;9.154;2023-10-31T11:10:02;19.00;66.90
7077;DHT22;3579;48.956;9.154;2023-10-31T11:12:32;19.10;66.90
7077;DHT22;3579;48.956;9.154;2023-10-31T11:14:59;19.10;66.90
7077;DHT22;3579;48.956;9.154;2023-10-31T11:17:30;19.10;66.90
7077;DHT22;3579;48.956;9.154;2023-10-31T11:19:57;19.10;66.80
7077;DHT22;3579;48.956;9.154;2023-10-31T11:22:24;19.10;66.80
7077;DHT22;3579;48.956;9.154;2023-10-31T11:24:50;19.10;66.80
7077;DHT22;3579;48.956;9.154;2023-10-31T11:27:17;19.20;66.90
7077;DHT22;3579;48.956;9.154;2023-10-31T11:29:44;19.20;66.90
7077;DHT22;3579;48.956;9.154;2023-10-31T11:32:11;19.20;66.90
7077;DHT22;3579;48.956;9.154;2023-10-31T11:34:38;19.20;66.80
7077;DHT22;3579;48.956;9.154;2023-10-31T11:37:33;19.20;66.80
7077;DHT22;3579;48.956;9.154;2023-10-31T11:42:41;19.30;66.80
7077;DHT22;3579;48.956;9.154;2023-10-31T11:45:08;19.30;66.70
7077;DHT22;3579;48.956;9.154;2023-10-31T11:47:51;19.30;66.70
7077;DHT22;3579;48.956;9.154;2023-10-31T11:50:19;19.30;66.70
7077;DHT22;3579;48.956;9.154;2023-10-31T11:53:16;19.30;66.70
7077;DHT22;3579;48.956;9.154;2023-10-31T11:55:44;19.20;66.70
7077;DHT22;3579;48.956;9.154;2023-10-31T11:58:21;19.20;66.70
7077;DHT22;3579;48.956;9.154;2023-10-31T12:00:50;19.20;66.80
7077;DHT22;3579;48.956;9.154;2023-10-31T12:03:18;19.20;66.80
7077;DHT22;3579;48.956;9.154;2023-10-31T12:05:57;19.20;66.80
7077;DHT22;3579;48.956;9.154;2023-10-31T12:08:35;19.30;66.80
7077;DHT22;3579;48.956;9.154;2023-10-31T12:11:07;19.20;66.70
7077;DHT22;3579;48.956;9.154;2023-10-31T12:13:35;19.30;66.80
7077;DHT22;3579;48.956;9.154;2023-10-31T12:16:01;19.30;66.70
7077;DHT22;3579;48.956;9.154;2023-10-31T12:18:28;19.30;66.70
7077;DHT22;3579;48.956;9.154;2023-10-31T12:20:55;19.40;66.70
7077;DHT22;3579;48.956;9.154;2023-10-31T12:23:22;19.40;66.70
7077;DHT22;3579;48.956;9.154;2023-10-31T12:25:52;19.40;66.70
7077;DHT22;3579;48.956;9.154;2023-10-31T12:28:18;19.40;66.70
7077;DHT22;3579;48.956;9.154;2023-10-31T12:30:46;19.40;66.70
7077;DHT22;3579;48.956;9.154;2023-10-31T12:33:12;19.30;66.60
7077;DHT22;3579;48.956;9.154;2023-10-31T12:35:39;19.30;66.70
7077;DHT22;3579;48.956;9.154;2023-10-31T12:38:06;19.30;66.80
7077;DHT22;3579;48.956;9.154;2023-10-31T12:40:33;19.30;66.80
7077;DHT22;3579;48.956;9.154;2023-10-31T12:43:00;19.30;66.90
7077;DHT22;3579;48.956;9.154;2023-10-31T12:45:27;19.30;66.90
7077;DHT22;3579;48.956;9.154;2023-10-31T12:48:06;19.30;66.90
7077;DHT22;3579;48.956;9.154;2023-10-31T12:50:34;19.30;66.90
7077;DHT22;3579;48.956;9.154;2023-10-31T12:53:02;19.30;67.00
7077;DHT22;3579;48.956;9.154;2023-10-31T12:55:30;19.30;67.00
7077;DHT22;3579;48.956;9.154;2023-10-31T12:57:58;19.30;67.10
7077;DHT22;3579;48.956;9.154;2023-10-31T13:00:34;19.30;67.10
7077;DHT22;3579;48.956;9.154;2023-10-31T13:03:05;19.30;67.10
7077;DHT22;3579;48.956;9.154;2023-10-31T13:05:32;19.30;67.20
7077;DHT22;3579;48.956;9.154;2023-10-31T13:08:02;19.30;67.10
7077;DHT22;3579;48.956;9.154;2023-10-31T13:10:30;19.30;67.10
7077;DHT22;3579;48.956;9.154;2023-10-31T13:13:00;19.30;67.10
7077;DHT22;3579;48.956;9.154;2023-10-31T13:15:26;19.20;67.10
7077;DHT22;3579;48.956;9.154;2023-10-31T13:17:52;19.30;67.20
7077;DHT22;3579;48.956;9.154;2023-10-31T13:20:20;19.20;67.10
7077;DHT22;3579;48.956;9.154;2023-10-31T13:22:47;19.30;67.20
7077;DHT22;3579;48.956;9.154;2023-10-31T13:25:15;19.20;67.10
7077;DHT22;3579;48.956;9.154;2023-10-31T13:27:43;19.30;67.20
7077;DHT22;3579;48.956;9.154;2023-10-31T13:30:11;19.30;67.20
7077;DHT22;3579;48.956;9.154;2023-10-31T13:32:38;19.30;67.20
7077;DHT22;3579;48.956;9.154;2023-10-31T13:35:05;19.30;67.20
7077;DHT22;3579;48.956;9.154;2023-10-31T13:37:31;19.30;67.20
7077;DHT22;3579;48.956;9.154;2023-10-31T13:39:57;19.30;67.20
7077;DHT22;3579;48.956;9.154;2023-10-31T13:42:23;19.30;67.20
7077;DHT22;3579;48.956;9.154;2023-10-31T13:44:49;19.30;67.20
7077;DHT22;3579;48.956;9.154;2023-10-31T13:47:15;19.30;67.10
7077;DHT22;3579;48.956;9.154;2023-10-31T13:49:41;19.30;67.10
7077;DHT22;3579;48.956;9.154;2023-10-31T13:52:08;19.30;67.20
7077;DHT22;3579;48.956;9.154;2023-10-31T13:54:34;19.30;67.10
7077;DHT22;3579;48.956;9.154;2023-10-31T13:57:00;19.30;67.10
7077;DHT22;3579;48.956;9.154;2023-10-31T13:59:27;19.30;67.20
7077;DHT22;3579;48.956;9.154;2023-10-31T14:01:53;19.30;67.20
7077;DHT22;3579;48.956;9.154;2023-10-31T14:04:20;19.30;67.20
7077;DHT22;3579;48.956;9.154;2023-10-31T14:06:46;19.30;67.20
7077;DHT22;3579;48.956;9.154;2023-10-31T14:09:13;19.30;67.20
7077;DHT22;3579;48.956;9.154;2023-10-31T14:11:41;19.30;67.20
7077;DHT22;3579;48.956;9.154;2023-10-31T14:14:08;19.30;67.20
7077;DHT22;3579;48.956;9.154;2023-10-31T14:16:42;19.30;67.20
7077;DHT22;3579;48.956;9.154;2023-10-31T14:19:12;19.30;67.20
7077;DHT22;3579;48.956;9.154;2023-10-31T14:21:42;19.30;67.20
7077;DHT22;3579;48.956;9.154;2023-10-31T14:24:08;19.30;67.20
7077;DHT22;3579;48.956;9.154;2023-10-31T14:26:35;19.30;67.20
7077;DHT22;3579;48.956;9.154;2023-10-31T14:29:02;19.30;67.30
7077;DHT22;3579;48.956;9.154;2023-10-31T14:31:28;19.30;67.30
7077;DHT22;3579;48.956;9.154;2023-10-31T14:33:54;19.30;67.30
7077;DHT22;3579;48.956;9.154;2023-10-31T14:36:21;19.30;67.30
7077;DHT22;3579;48.956;9.154;2023-10-31T14:38:47;19.30;67.30
7077;DHT22;3579;48.956;9.154;2023-10-31T14:41:14;19.30;67.30
7077;DHT22;3579;48.956;9.154;2023-10-31T14:43:40;19.30;67.30
7077;DHT22;3579;48.956;9.154;2023-10-31T14:46:06;19.30;67.30
7077;DHT22;3579;48.956;9.154;2023-10-31T14:48:33;19.30;67.30
7077;DHT22;3579;48.956;9.154;2023-10-31T14:50:59;19.30;67.30
7077;DHT22;3579;48.956;9.154;2023-10-31T14:53:27;19.30;67.30
7077;DHT22;3579;48.956;9.154;2023-10-31T14:55:53;19.30;67.30
7077;DHT22;3579;48.956;9.154;2023-10-31T14:58:20;19.30;67.30
7077;DHT22;3579;48.956;9.154;2023-10-31T15:00:47;19.20;67.30
7077;DHT22;3579;48.956;9.154;2023-10-31T15:03:13;19.20;67.30
7077;DHT22;3579;48.956;9.154;2023-10-31T15:05:39;19.20;67.40
7077;DHT22;3579;48.956;9.154;2023-10-31T15:08:05;19.20;67.40
7077;DHT22;3579;48.956;9.154;2023-10-31T15:10:31;19.20;67.40
7077;DHT22;3579;48.956;9.154;2023-10-31T15:12:58;19.20;67.40
7077;DHT22;3579;48.956;9.154;2023-10-31T15:15:24;19.20;67.50
7077;DHT22;3579;48.956;9.154;2023-10-31T15:17:50;19.20;67.50
7077;DHT22;3579;48.956;9.154;2023-10-31T15:20:19;19.20;67.50
7077;DHT22;3579;48.956;9.154;2023-10-31T15:22:48;19.10;67.40
7077;DHT22;3579;48.956;9.154;2023-10-31T15:25:14;19.20;67.60
7077;DHT22;3579;48.956;9.154;2023-10-31T15:27:40;19.10;67.50
7077;DHT22;3579;48.956;9.154;2023-10-31T15:30:07;19.10;67.50
7077;DHT22;3579;48.956;9.154;2023-10-31T15:32:35;19.10;67.50
7077;DHT22;3579;48.956;9.154;2023-10-31T15:35:04;19.10;67.60
7077;DHT22;3579;48.956;9.154;2023-10-31T15:37:31;19.10;67.60
7077;DHT22;3579;48.956;9.154;2023-10-31T15:39:57;19.10;67.60
7077;DHT22;3579;48.956;9.154;2023-10-31T15:42:24;19.10;67.70
7077;DHT22;3579;48.956;9.154;2023-10-31T15:44:51;19.10;67.80
7077;DHT22;3579;48.956;9.154;2023-10-31T15:47:17;19.00;67.80
7077;DHT22;3579;48.956;9.154;2023-10-31T15:49:43;19.00;67.70
7077;DHT22;3579;48.956;9.154;2023-10-31T15:52:09;19.00;67.70
7077;DHT22;3579;48.956;9.154;2023-10-31T15:54:35;19.00;67.70
7077;DHT22;3579;48.956;9.154;2023-10-31T15:57:02;19.00;67.80
7077;DHT22;3579;48.956;9.154;2023-10-31T15:59:28;19.00;67.70
7077;DHT22;3579;48.956;9.154;2023-10-31T16:01:54;19.00;67.80
7077;DHT22;3579;48.956;9.154;2023-10-31T16:04:20;19.00;67.80
7077;DHT22;3579;48.956;9.154;2023-10-31T16:06:49;19.00;67.80